createdAt,value
2019-05-01T00:01:00.455Z,13.18
2019-05-01T00:04:12.361Z,13.20
2019-05-01T00:06:44.962Z,11.88
2019-05-01T00:09:13.805Z,12.90
2019-05-01T00:11:42.982Z,14.15
2019-05-01T00:14:11.832Z,12.28
2019-05-01T00:16:40.808Z,13.80
2019-05-01T00:21:57.760Z,12.43
2019-05-01T00:24:26.811Z,13.62
2019-05-01T00:26:55.794Z,14.05
2019-05-01T00:29:24.808Z,12.95
2019-05-01T00:31:53.733Z,13.38
2019-05-01T00:34:22.772Z,14.43
2019-05-01T00:36:51.728Z,12.25
2019-05-01T00:39:20.614Z,13.20
2019-05-01T00:41:49.669Z,13.45
2019-05-01T00:44:18.604Z,13.83
2019-05-01T00:46:47.538Z,12.65
2019-05-01T00:49:16.557Z,13.43
2019-05-01T00:51:45.831Z,11.95
2019-05-01T00:54:14.847Z,13.13
2019-05-01T00:57:08.691Z,15.30
2019-05-01T00:59:47.141Z,13.38
2019-05-01T01:02:34.908Z,12.98
2019-05-01T01:05:03.981Z,12.80
2019-05-01T01:07:32.925Z,13.62
2019-05-01T01:10:01.999Z,12.70
2019-05-01T01:12:31.045Z,13.00
2019-05-01T01:15:00.007Z,12.80
2019-05-01T01:17:29.025Z,12.18
2019-05-01T01:19:58.016Z,14.45
2019-05-01T01:22:27.056Z,12.28
2019-05-01T01:24:56.091Z,14.18
2019-05-01T01:27:25.540Z,12.85
2019-05-01T01:29:55.108Z,12.87
2019-05-01T01:32:24.024Z,13.22
2019-05-01T01:34:54.179Z,12.80
2019-05-01T01:37:23.196Z,12.95
2019-05-01T01:39:53.002Z,12.80
2019-05-01T01:42:22.127Z,14.07
2019-05-01T01:45:07.583Z,13.05
2019-05-01T01:47:39.091Z,13.48
2019-05-01T01:50:08.177Z,13.58
2019-05-01T01:52:37.176Z,13.60
2019-05-01T01:55:06.264Z,13.25
2019-05-01T01:57:35.192Z,13.93
2019-05-01T02:00:06.071Z,14.43
2019-05-01T02:02:46.994Z,14.03
2019-05-01T02:05:18.320Z,14.87
2019-05-01T02:07:47.252Z,15.15
2019-05-01T02:10:16.328Z,14.40
2019-05-01T02:12:45.267Z,14.13
2019-05-01T02:15:14.255Z,13.55
2019-05-01T02:17:43.313Z,13.95
2019-05-01T02:20:12.295Z,16.93
2019-05-01T02:22:41.446Z,13.75
2019-05-01T02:25:11.861Z,15.30
2019-05-01T02:27:49.714Z,13.32
2019-05-01T02:30:20.355Z,13.72
2019-05-01T02:32:49.446Z,13.72
2019-05-01T02:35:18.424Z,14.50
2019-05-01T02:37:47.761Z,12.75
2019-05-01T02:40:47.451Z,15.20
2019-05-01T02:43:17.219Z,17.85
2019-05-01T02:45:46.348Z,19.27
2019-05-01T02:48:36.476Z,15.40
2019-05-01T02:51:05.449Z,15.58
2019-05-01T02:53:36.523Z,17.73
2019-05-01T02:56:21.495Z,18.10
2019-05-01T02:58:50.886Z,18.82
2019-05-01T03:01:19.905Z,18.43
2019-05-01T03:03:49.041Z,18.25
2019-05-01T03:06:17.919Z,19.23
2019-05-01T03:08:47.087Z,19.12
2019-05-01T03:11:16.049Z,18.55
2019-05-01T03:13:45.010Z,19.02
2019-05-01T03:16:14.117Z,17.07
2019-05-01T03:18:47.538Z,16.73
2019-05-01T03:21:34.358Z,18.23
2019-05-01T03:24:09.929Z,16.70
2019-05-01T03:26:39.066Z,18.70
2019-05-01T03:29:08.307Z,17.92
2019-05-01T03:31:37.342Z,22.10
2019-05-01T03:34:06.613Z,19.52
2019-05-01T03:36:35.673Z,20.92
2019-05-01T03:39:05.896Z,24.77
2019-05-01T03:41:34.753Z,21.33
2019-05-01T03:44:04.354Z,20.08
2019-05-01T03:46:33.236Z,22.77
2019-05-01T03:49:02.243Z,24.35
2019-05-01T03:51:31.299Z,25.37
2019-05-01T03:54:00.239Z,23.83
2019-05-01T03:56:29.324Z,22.90
2019-05-01T03:58:58.241Z,22.98
2019-05-01T04:01:55.308Z,24.87
2019-05-01T04:04:27.035Z,24.32
2019-05-01T04:06:56.285Z,23.47
2019-05-01T04:09:25.314Z,25.60
2019-05-01T04:11:54.382Z,20.45
2019-05-01T04:14:23.312Z,23.22
2019-05-01T04:16:58.229Z,20.48
2019-05-01T04:19:27.110Z,23.70
2019-05-01T04:22:05.509Z,24.20
2019-05-01T04:24:34.452Z,25.27
2019-05-01T04:27:05.257Z,25.15
2019-05-01T04:29:40.563Z,25.02
2019-05-01T04:32:20.058Z,24.80
2019-05-01T04:34:57.057Z,21.83
2019-05-01T04:37:26.366Z,26.65
2019-05-01T04:39:55.496Z,24.15
2019-05-01T04:42:24.426Z,24.07
2019-05-01T04:44:53.462Z,22.75
2019-05-01T04:47:22.385Z,24.72
2019-05-01T04:49:51.454Z,24.02
2019-05-01T04:52:20.376Z,25.48
2019-05-01T04:54:49.514Z,24.35
2019-05-01T04:57:18.512Z,23.35
2019-05-01T04:59:47.562Z,22.17
2019-05-01T05:02:21.517Z,22.00
2019-05-01T05:04:50.465Z,22.77
2019-05-01T05:07:19.323Z,23.02
2019-05-01T05:09:48.196Z,22.80
2019-05-01T05:12:42.130Z,23.83
2019-05-01T05:15:27.180Z,19.92
2019-05-01T05:17:56.122Z,20.15
2019-05-01T05:20:25.072Z,20.65
2019-05-01T05:22:54.157Z,19.52
2019-05-01T05:25:23.239Z,23.62
2019-05-01T05:27:52.558Z,21.73
2019-05-01T05:30:21.709Z,20.02
2019-05-01T05:32:51.090Z,19.90
2019-05-01T05:35:20.287Z,20.03
2019-05-01T05:38:26.473Z,19.10
2019-05-01T05:40:55.377Z,18.73
2019-05-01T05:43:24.501Z,20.08
2019-05-01T05:45:53.364Z,21.02
2019-05-01T05:48:22.368Z,17.48
2019-05-01T05:51:01.785Z,19.40
2019-05-01T05:53:32.792Z,18.30
2019-05-01T05:56:04.129Z,21.42
2019-05-01T05:58:46.858Z,18.82
2019-05-01T06:01:32.404Z,20.35
2019-05-01T06:04:18.810Z,20.17
2019-05-01T06:06:58.930Z,21.80
2019-05-01T06:09:37.223Z,21.75
2019-05-01T06:12:23.857Z,19.55
2019-05-01T06:15:26.884Z,20.00
2019-05-01T06:18:14.883Z,19.57
2019-05-01T06:23:42.403Z,19.75
2019-05-01T06:26:36.794Z,21.25
2019-05-01T06:29:03.564Z,21.48
2019-05-01T06:31:32.903Z,19.80
2019-05-01T06:34:02.329Z,17.77
2019-05-01T06:36:31.549Z,20.30
2019-05-01T06:39:00.662Z,20.15
2019-05-01T06:41:35.797Z,18.82
2019-05-01T06:44:09.805Z,20.60
2019-05-01T06:46:58.291Z,20.35
2019-05-01T06:49:48.987Z,18.05
2019-05-01T06:52:24.991Z,20.68
2019-05-01T06:54:53.613Z,18.37
2019-05-01T06:59:51.018Z,16.70
2019-05-01T07:02:20.134Z,18.57
2019-05-01T07:04:49.130Z,17.05
2019-05-01T07:07:25.082Z,18.62
2019-05-01T07:09:51.068Z,19.95
2019-05-01T07:12:24.005Z,18.12
2019-05-01T07:14:52.440Z,18.57
2019-05-01T07:17:21.537Z,19.87
2019-05-01T07:20:18.582Z,20.57
2019-05-01T07:22:47.592Z,19.95
2019-05-01T07:25:16.686Z,16.97
2019-05-01T07:27:45.778Z,17.45
2019-05-01T07:30:22.320Z,17.65
2019-05-01T07:32:51.396Z,18.02
2019-05-01T07:35:20.361Z,17.98
2019-05-01T07:37:49.283Z,18.40
2019-05-01T07:40:20.783Z,17.40
2019-05-01T07:42:52.025Z,18.55
2019-05-01T07:45:33.942Z,19.02
2019-05-01T07:48:05.604Z,18.07
2019-05-01T07:50:33.613Z,16.75
2019-05-01T07:53:02.618Z,20.17
2019-05-01T07:55:37.753Z,16.12
2019-05-01T07:58:10.602Z,16.57
2019-05-01T08:01:07.743Z,17.52
2019-05-01T08:03:38.179Z,16.95
2019-05-01T08:06:07.678Z,15.93
2019-05-01T08:08:39.574Z,17.92
2019-05-01T08:11:10.125Z,16.52
2019-05-01T08:13:38.025Z,15.40
2019-05-01T08:16:08.680Z,16.62
2019-05-01T08:18:44.133Z,16.82
2019-05-01T08:21:26.142Z,16.37
2019-05-01T08:23:54.676Z,15.72
2019-05-01T08:26:23.685Z,15.72
2019-05-01T08:29:08.878Z,15.35
2019-05-01T08:32:03.447Z,16.97
2019-05-01T08:34:34.212Z,15.45
2019-05-01T08:37:03.162Z,15.65
2019-05-01T08:39:32.164Z,15.28
2019-05-01T08:42:02.930Z,15.70
2019-05-01T08:44:34.296Z,15.32
2019-05-01T08:47:12.708Z,15.00
2019-05-01T08:49:55.203Z,15.63
2019-05-01T08:52:24.253Z,15.18
2019-05-01T08:54:54.828Z,15.25
2019-05-01T08:57:23.840Z,15.30
2019-05-01T08:59:55.650Z,15.75
2019-05-01T09:02:23.624Z,15.75
2019-05-01T09:05:02.122Z,15.00
2019-05-01T09:07:25.206Z,15.25
2019-05-01T09:09:55.248Z,15.45
2019-05-01T09:12:24.128Z,15.05
2019-05-01T09:14:53.036Z,15.80
2019-05-01T09:17:22.300Z,13.60
2019-05-01T09:19:51.445Z,14.45
2019-05-01T09:22:20.405Z,14.35
2019-05-01T09:24:49.626Z,14.43
2019-05-01T09:27:55.463Z,15.08
2019-05-01T09:30:31.097Z,14.60
2019-05-01T09:33:00.131Z,14.47
2019-05-01T09:35:29.043Z,14.83
2019-05-01T09:37:58.018Z,16.87
2019-05-01T09:40:27.507Z,16.20
2019-05-01T09:42:59.453Z,13.98
2019-05-01T09:45:27.530Z,15.63
2019-05-01T09:47:56.584Z,15.08
2019-05-01T09:50:25.860Z,14.75
2019-05-01T09:53:07.198Z,15.88
2019-05-01T09:55:54.960Z,16.23
2019-05-01T09:58:24.012Z,15.60
2019-05-01T10:00:55.975Z,15.10
2019-05-01T10:03:24.882Z,13.88
2019-05-01T10:05:53.669Z,14.47
2019-05-01T10:08:22.526Z,16.35
2019-05-01T10:10:51.667Z,13.62
2019-05-01T10:13:22.511Z,14.03
2019-05-01T10:15:51.421Z,13.22
2019-05-01T10:18:20.447Z,15.90
2019-05-01T10:20:49.466Z,14.38
2019-05-01T10:23:18.468Z,15.35
2019-05-01T10:25:51.457Z,14.28
2019-05-01T10:28:50.105Z,13.88
2019-05-01T10:31:31.992Z,13.28
2019-05-01T10:34:09.170Z,12.63
2019-05-01T10:36:43.221Z,13.22
2019-05-01T10:39:15.987Z,12.85
2019-05-01T10:41:46.281Z,13.05
2019-05-01T10:44:13.488Z,12.68
2019-05-01T10:46:42.592Z,11.30
2019-05-01T10:49:11.869Z,13.00
2019-05-01T10:51:40.823Z,11.93
2019-05-01T10:54:09.872Z,12.75
2019-05-01T10:56:38.898Z,13.83
2019-05-01T10:59:07.778Z,13.50
2019-05-01T11:01:54.930Z,12.75
2019-05-01T11:04:23.890Z,12.70
2019-05-01T11:06:52.971Z,13.10
2019-05-01T11:09:21.891Z,16.70
2019-05-01T11:11:50.897Z,15.85
2019-05-01T11:14:19.972Z,13.75
2019-05-01T11:16:48.921Z,15.45
2019-05-01T11:19:17.981Z,14.98
2019-05-01T11:21:46.913Z,15.05
2019-05-01T11:24:16.021Z,15.15
2019-05-01T11:26:44.922Z,15.05
2019-05-01T11:29:13.997Z,15.53
2019-05-01T11:32:01.872Z,15.78
2019-05-01T11:35:01.916Z,16.40
2019-05-01T11:38:07.785Z,16.35
2019-05-01T11:40:42.464Z,16.75
2019-05-01T11:43:11.388Z,15.72
2019-05-01T11:45:40.294Z,17.20
2019-05-01T11:48:09.111Z,16.50
2019-05-01T11:50:38.357Z,16.40
2019-05-01T11:53:07.149Z,19.07
2019-05-01T11:55:36.038Z,17.27
2019-05-01T11:58:04.916Z,15.72
2019-05-01T12:00:34.201Z,15.35
2019-05-01T12:03:03.173Z,15.10
2019-05-01T12:05:32.179Z,16.90
2019-05-01T12:08:01.175Z,16.42
2019-05-01T12:10:30.145Z,17.00
2019-05-01T12:12:59.188Z,19.15
2019-05-01T12:15:28.192Z,17.35
2019-05-01T12:17:57.201Z,17.48
2019-05-01T12:20:26.250Z,17.57
2019-05-01T12:22:55.258Z,17.12
2019-05-01T12:25:24.289Z,18.27
2019-05-01T12:27:53.220Z,15.15
2019-05-01T12:30:22.334Z,19.17
2019-05-01T12:32:51.284Z,19.92
2019-05-01T12:35:20.353Z,18.10
2019-05-01T12:37:49.677Z,19.80
2019-05-01T12:40:19.721Z,22.70
2019-05-01T12:42:48.844Z,18.65
2019-05-01T12:45:17.760Z,19.82
2019-05-01T12:48:05.672Z,18.70
2019-05-01T12:50:34.594Z,20.55
2019-05-01T12:53:13.260Z,18.30
2019-05-01T12:56:16.192Z,17.98
2019-05-01T12:58:50.108Z,19.95
2019-05-01T13:01:19.182Z,20.50
2019-05-01T13:03:48.028Z,19.70
2019-05-01T13:06:16.921Z,21.20
2019-05-01T13:08:45.849Z,19.92
2019-05-01T13:11:14.889Z,21.33
2019-05-01T13:13:43.809Z,20.90
2019-05-01T13:16:12.780Z,20.77
2019-05-01T13:18:41.561Z,18.52
2019-05-01T13:21:10.445Z,19.27
2019-05-01T13:23:39.564Z,20.23
2019-05-01T13:26:25.325Z,19.23
2019-05-01T13:29:01.912Z,19.45
2019-05-01T13:31:44.595Z,18.67
2019-05-01T13:34:13.577Z,20.17
2019-05-01T13:36:42.656Z,19.20
2019-05-01T13:39:11.837Z,19.37
2019-05-01T13:41:40.721Z,18.90
2019-05-01T13:44:09.600Z,18.40
2019-05-01T13:46:38.558Z,18.95
2019-05-01T13:49:07.617Z,18.85
2019-05-01T13:51:36.674Z,18.50
2019-05-01T13:54:06.553Z,20.82
2019-05-01T13:56:35.725Z,18.90
2019-05-01T13:59:06.716Z,18.32
2019-05-01T14:01:35.620Z,19.48
2019-05-01T14:04:04.601Z,18.92
2019-05-01T14:06:33.438Z,18.90
2019-05-01T14:09:02.616Z,20.08
2019-05-01T14:11:31.775Z,17.95
2019-05-01T14:14:00.767Z,19.67
2019-05-01T14:16:29.928Z,17.50
2019-05-01T14:18:58.841Z,17.12
2019-05-01T14:21:37.553Z,18.35
2019-05-01T14:24:37.873Z,16.75
2019-05-01T14:27:07.849Z,17.15
2019-05-01T14:29:36.942Z,17.50
2019-05-01T14:32:05.953Z,17.55
2019-05-01T14:34:35.212Z,17.60
2019-05-01T14:37:04.195Z,17.25
2019-05-01T14:39:33.049Z,17.20
2019-05-01T14:42:02.019Z,17.57
2019-05-01T14:44:36.963Z,16.77
2019-05-01T14:47:01.653Z,17.45
2019-05-01T14:49:30.533Z,17.27
2019-05-01T14:51:59.410Z,16.48
2019-05-01T14:54:28.422Z,18.60
2019-05-01T14:56:57.533Z,17.20
2019-05-01T14:59:26.434Z,16.05
2019-05-01T15:01:55.596Z,15.83
2019-05-01T15:04:24.480Z,16.35
2019-05-01T15:06:53.556Z,16.57
2019-05-01T15:09:22.752Z,15.38
2019-05-01T15:11:51.944Z,16.20
2019-05-01T15:14:33.073Z,15.68
2019-05-01T15:17:24.224Z,15.90
2019-05-01T15:20:00.433Z,15.60
2019-05-01T15:22:29.411Z,15.35
2019-05-01T15:24:58.211Z,16.32
2019-05-01T15:27:27.084Z,16.30
2019-05-01T15:29:56.176Z,16.73
2019-05-01T15:32:25.238Z,16.65
2019-05-01T15:34:54.217Z,17.05
2019-05-01T15:37:23.213Z,15.43
2019-05-01T15:39:57.250Z,15.70
2019-05-01T15:42:43.784Z,16.15
2019-05-01T15:45:12.684Z,15.63
2019-05-01T15:47:41.642Z,14.43
2019-05-01T15:50:10.636Z,15.38
2019-05-01T15:52:39.782Z,15.05
2019-05-01T15:55:08.802Z,15.10
2019-05-01T15:57:37.850Z,15.20
2019-05-01T16:00:07.374Z,16.27
2019-05-01T16:02:36.369Z,15.40
2019-05-01T16:05:05.728Z,15.40
2019-05-01T16:07:34.588Z,14.13
2019-05-01T16:10:05.385Z,14.58
2019-05-01T16:12:42.161Z,14.33
2019-05-01T16:15:17.662Z,14.18
2019-05-01T16:17:46.534Z,14.68
2019-05-01T16:20:17.022Z,14.13
2019-05-01T16:22:46.291Z,15.30
2019-05-01T16:25:15.210Z,13.93
2019-05-01T16:27:44.392Z,14.85
2019-05-01T16:30:15.270Z,13.03
2019-05-01T16:32:44.170Z,13.72
2019-05-01T16:35:13.065Z,13.72
2019-05-01T16:37:41.999Z,14.75
2019-05-01T16:40:29.541Z,14.15
2019-05-01T16:42:58.623Z,14.28
2019-05-01T16:45:27.509Z,15.25
2019-05-01T16:47:56.786Z,14.55
2019-05-01T16:50:26.074Z,13.70
2019-05-01T16:52:55.092Z,13.95
2019-05-01T16:55:24.077Z,13.85
2019-05-01T16:57:53.078Z,13.45
2019-05-01T17:00:39.519Z,14.47
2019-05-01T17:03:16.663Z,14.33
2019-05-01T17:05:56.618Z,13.78
2019-05-01T17:08:56.462Z,14.40
2019-05-01T17:11:28.391Z,14.03
2019-05-01T17:13:57.889Z,13.83
2019-05-01T17:16:26.899Z,13.78
2019-05-01T17:18:55.747Z,14.45
2019-05-01T17:21:24.660Z,14.30
2019-05-01T17:23:53.682Z,13.70
2019-05-01T17:26:22.669Z,13.20
2019-05-01T17:28:51.635Z,14.05
2019-05-01T17:31:20.716Z,13.28
2019-05-01T17:33:50.897Z,12.90
2019-05-01T17:36:20.824Z,13.28
2019-05-01T17:38:50.132Z,13.93
2019-05-01T17:41:22.681Z,13.10
2019-05-01T17:43:50.800Z,12.95
2019-05-01T17:46:19.919Z,14.40
2019-05-01T17:48:48.894Z,13.00
2019-05-01T17:51:19.889Z,13.88
2019-05-01T17:53:48.680Z,14.03
2019-05-01T17:56:23.542Z,13.48
2019-05-01T17:58:48.236Z,13.68
2019-05-01T18:01:44.840Z,13.53
2019-05-01T18:04:25.634Z,12.35
2019-05-01T18:06:54.496Z,14.20
2019-05-01T18:09:23.512Z,12.75
2019-05-01T18:11:53.601Z,12.28
2019-05-01T18:14:41.967Z,13.03
2019-05-01T18:17:10.885Z,12.53
2019-05-01T18:19:39.883Z,14.30
2019-05-01T18:22:27.058Z,13.03
2019-05-01T18:25:20.763Z,12.70
2019-05-01T18:28:08.848Z,13.35
2019-05-01T18:30:40.092Z,13.70
2019-05-01T18:33:09.027Z,13.95
2019-05-01T18:35:37.948Z,13.83
2019-05-01T18:38:25.923Z,13.22
2019-05-01T18:40:59.205Z,13.93
2019-05-01T18:43:32.167Z,12.98
2019-05-01T18:45:59.846Z,15.30
2019-05-01T18:48:28.784Z,15.63
2019-05-01T18:50:57.795Z,14.07
2019-05-01T18:53:26.894Z,14.33
2019-05-01T18:55:56.000Z,13.68
2019-05-01T18:58:24.932Z,14.83
2019-05-01T19:00:53.930Z,12.90
2019-05-01T19:03:23.120Z,13.72
2019-05-01T19:05:52.274Z,15.40
2019-05-01T19:08:21.265Z,13.80
2019-05-01T19:10:50.217Z,16.17
2019-05-01T19:13:19.375Z,14.40
2019-05-01T19:15:48.263Z,17.30
2019-05-01T19:18:17.317Z,17.25
2019-05-01T19:20:58.937Z,15.28
2019-05-01T19:23:17.176Z,15.45
2019-05-01T19:25:46.186Z,14.55
2019-05-01T19:28:15.833Z,14.33
2019-05-01T19:31:05.531Z,14.50
2019-05-01T19:33:34.440Z,17.45
2019-05-01T19:36:08.077Z,16.87
2019-05-01T19:38:35.014Z,13.58
2019-05-01T19:41:08.792Z,16.12
2019-05-01T19:43:35.744Z,15.03
2019-05-01T19:46:06.148Z,14.15
2019-05-01T19:48:35.293Z,12.93
2019-05-01T19:51:04.197Z,14.20
2019-05-01T19:53:33.462Z,13.50
2019-05-01T19:56:02.430Z,12.85
2019-05-01T19:58:31.457Z,13.28
2019-05-01T20:01:04.243Z,13.40
2019-05-01T20:03:36.117Z,13.75
2019-05-01T20:06:05.673Z,14.00
2019-05-01T20:08:34.438Z,13.30
2019-05-01T20:11:03.512Z,13.80
2019-05-01T20:13:32.512Z,15.15
2019-05-01T20:16:01.765Z,18.30
2019-05-01T20:18:30.586Z,17.95
2019-05-01T20:20:59.471Z,17.87
2019-05-01T20:23:31.367Z,16.02
2019-05-01T20:25:59.284Z,14.45
2019-05-01T20:28:28.495Z,17.98
2019-05-01T20:30:57.612Z,16.27
2019-05-01T20:33:26.624Z,16.00
2019-05-01T20:35:55.731Z,19.82
2019-05-01T20:38:24.659Z,17.20
2019-05-01T20:40:53.672Z,17.12
2019-05-01T20:43:22.946Z,15.90
2019-05-01T20:45:51.798Z,15.55
2019-05-01T20:48:23.753Z,15.38
2019-05-01T20:50:51.401Z,16.35
2019-05-01T20:53:20.496Z,14.38
2019-05-01T20:55:58.058Z,14.53
2019-05-01T20:58:27.083Z,13.35
2019-05-01T21:00:59.983Z,14.80
2019-05-01T21:03:29.095Z,19.60
2019-05-01T21:06:29.228Z,16.80
2019-05-01T21:09:08.254Z,17.82
2019-05-01T21:11:42.157Z,15.45
2019-05-01T21:14:19.809Z,15.72
2019-05-01T21:16:43.959Z,16.20
2019-05-01T21:19:13.012Z,15.83
2019-05-01T21:21:43.447Z,15.18
2019-05-01T21:24:13.991Z,18.42
2019-05-01T21:26:43.455Z,17.67
2019-05-01T21:29:34.442Z,18.25
2019-05-01T21:32:03.625Z,17.82
2019-05-01T21:34:33.402Z,18.62
2019-05-01T21:37:02.486Z,15.15
2019-05-01T21:39:33.328Z,14.87
2019-05-01T21:42:06.618Z,15.93
2019-05-01T21:44:33.287Z,17.10
2019-05-01T21:47:03.935Z,16.65
2019-05-01T21:49:33.337Z,22.35
2019-05-01T21:52:03.772Z,17.67
2019-05-01T21:54:33.065Z,16.45
2019-05-01T21:57:02.086Z,17.77
2019-05-01T21:59:31.021Z,17.62
2019-05-01T22:02:00.155Z,18.52
2019-05-01T22:04:32.008Z,16.73
2019-05-01T22:06:59.629Z,18.32
2019-05-01T22:09:28.537Z,18.00
2019-05-01T22:11:57.481Z,16.52
2019-05-01T22:14:39.434Z,17.17
2019-05-01T22:17:14.614Z,17.25
2019-05-01T22:19:43.545Z,16.20
2019-05-01T22:22:22.564Z,16.75
2019-05-01T22:25:02.468Z,15.60
2019-05-01T22:27:53.283Z,17.27
2019-05-01T22:30:28.672Z,16.27
2019-05-01T22:32:58.044Z,16.65
2019-05-01T22:35:47.992Z,16.13
2019-05-01T22:38:17.278Z,18.17
2019-05-01T22:41:06.775Z,18.82
2019-05-01T22:43:34.348Z,15.53
2019-05-01T22:46:04.187Z,15.10
2019-05-01T22:48:33.127Z,14.23
2019-05-01T22:51:08.887Z,14.75
2019-05-01T22:53:37.779Z,15.28
2019-05-01T22:56:06.701Z,14.68
2019-05-01T22:58:35.845Z,15.05
2019-05-01T23:01:05.520Z,14.95
2019-05-01T23:03:52.872Z,14.45
2019-05-01T23:06:21.859Z,15.13
2019-05-01T23:08:50.809Z,12.88
2019-05-01T23:11:20.616Z,15.05
2019-05-01T23:13:50.924Z,13.43
2019-05-01T23:16:21.729Z,14.15
2019-05-01T23:18:52.064Z,14.68
2019-05-01T23:21:21.236Z,14.93
2019-05-01T23:23:50.272Z,15.25
2019-05-01T23:26:19.272Z,13.08
2019-05-01T23:28:48.304Z,14.85
2019-05-01T23:31:17.284Z,14.63
2019-05-01T23:33:50.644Z,15.78
2019-05-01T23:36:23.316Z,13.58
2019-05-01T23:38:47.468Z,15.65
2019-05-01T23:41:16.554Z,14.85
2019-05-01T23:43:45.559Z,14.05
2019-05-01T23:46:14.605Z,14.03
2019-05-01T23:48:43.513Z,16.25
2019-05-01T23:51:12.317Z,15.78
2019-05-01T23:53:44.231Z,14.43
2019-05-01T23:56:12.161Z,15.00
2019-05-01T23:58:41.229Z,15.30
